sensor_id;sensor_type;location;lat;lon;timestamp;pressure;altitude;pressure_sealevel;temperature;humidity
76990;BME280;65924;47.250;11.332;2022-12-18T00:00:26;95919.95;;;-0.61;62.46
76990;BME280;65924;47.250;11.332;2022-12-18T00:00:54;95923.45;;;-0.61;62.50
76990;BME280;65924;47.250;11.332;2022-12-18T00:01:27;95924.12;;;-0.61;62.40
76990;BME280;65924;47.250;11.332;2022-12-18T00:01:57;95921.95;;;-0.61;62.39
76990;BME280;65924;47.250;11.332;2022-12-18T00:02:25;95924.29;;;-0.62;62.45
76990;BME280;65924;47.250;11.332;2022-12-18T00:02:52;95921.27;;;-0.62;62.55
76990;BME280;65924;47.250;11.332;2022-12-18T00:03:20;95922.46;;;-0.62;62.55
76990;BME280;65924;47.250;11.332;2022-12-18T00:03:48;95921.10;;;-0.63;62.67
76990;BME280;65924;47.250;11.332;2022-12-18T00:04:22;95917.77;;;-0.62;62.46
76990;BME280;65924;47.250;11.332;2022-12-18T00:04:53;95917.95;;;-0.61;62.90
76990;BME280;65924;47.250;11.332;2022-12-18T00:05:20;95922.61;;;-0.61;62.77
76990;BME280;65924;47.250;11.332;2022-12-18T00:05:49;95919.61;;;-0.60;62.49
76990;BME280;65924;47.250;11.332;2022-12-18T00:06:18;95919.95;;;-0.60;62.58
76990;BME280;65924;47.250;11.332;2022-12-18T00:06:46;95918.60;;;-0.59;62.58
76990;BME280;65924;47.250;11.332;2022-12-18T00:07:13;95920.27;;;-0.59;62.34
76990;BME280;65924;47.250;11.332;2022-12-18T00:07:41;95922.44;;;-0.57;62.52
76990;BME280;65924;47.250;11.332;2022-12-18T00:08:08;95919.75;;;-0.57;62.32
76990;BME280;65924;47.250;11.332;2022-12-18T00:08:36;95921.42;;;-0.57;62.24
76990;BME280;65924;47.250;11.332;2022-12-18T00:09:03;95923.60;;;-0.54;62.39
76990;BME280;65924;47.250;11.332;2022-12-18T00:09:31;95923.93;;;-0.53;62.36
76990;BME280;65924;47.250;11.332;2022-12-18T00:09:59;95922.76;;;-0.53;62.32
76990;BME280;65924;47.250;11.332;2022-12-18T00:10:27;95923.92;;;-0.51;62.42
76990;BME280;65924;47.250;11.332;2022-12-18T00:10:55;95922.42;;;-0.50;62.20
76990;BME280;65924;47.250;11.332;2022-12-18T00:11:25;95923.27;;;-0.50;62.19
76990;BME280;65924;47.250;11.332;2022-12-18T00:11:54;95922.59;;;-0.50;62.35
76990;BME280;65924;47.250;11.332;2022-12-18T00:12:21;95923.26;;;-0.48;62.23
76990;BME280;65924;47.250;11.332;2022-12-18T00:12:49;95923.58;;;-0.48;62.17
76990;BME280;65924;47.250;11.332;2022-12-18T00:13:16;95919.91;;;-0.47;62.32
76990;BME280;65924;47.250;11.332;2022-12-18T00:13:45;95921.56;;;-0.46;62.07
76990;BME280;65924;47.250;11.332;2022-12-18T00:14:13;95921.55;;;-0.45;62.18
76990;BME280;65924;47.250;11.332;2022-12-18T00:14:43;95921.06;;;-0.45;62.10
76990;BME280;65924;47.250;11.332;2022-12-18T00:15:10;95921.40;;;-0.44;62.17
76990;BME280;65924;47.250;11.332;2022-12-18T00:15:39;95922.40;;;-0.44;62.12
76990;BME280;65924;47.250;11.332;2022-12-18T00:16:09;95923.40;;;-0.44;61.85
76990;BME280;65924;47.250;11.332;2022-12-18T00:16:38;95922.40;;;-0.44;61.99
76990;BME280;65924;47.250;11.332;2022-12-18T00:17:06;95924.23;;;-0.44;62.19
76990;BME280;65924;47.250;11.332;2022-12-18T00:17:34;95926.91;;;-0.44;62.03
76990;BME280;65924;47.250;11.332;2022-12-18T00:18:01;95927.26;;;-0.45;62.10
76990;BME280;65924;47.250;11.332;2022-12-18T00:18:29;95929.25;;;-0.45;61.95
76990;BME280;65924;47.250;11.332;2022-12-18T00:18:59;95934.25;;;-0.44;62.18
76990;BME280;65924;47.250;11.332;2022-12-18T00:19:27;95932.92;;;-0.44;62.00
76990;BME280;65924;47.250;11.332;2022-12-18T00:19:54;95933.27;;;-0.45;62.03
76990;BME280;65924;47.250;11.332;2022-12-18T00:20:22;95934.92;;;-0.45;61.87
76990;BME280;65924;47.250;11.332;2022-12-18T00:20:53;95936.61;;;-0.46;61.85
76990;BME280;65924;47.250;11.332;2022-12-18T00:21:20;95939.46;;;-0.47;62.21
76990;BME280;65924;47.250;11.332;2022-12-18T00:21:48;95940.45;;;-0.47;62.11
76990;BME280;65924;47.250;11.332;2022-12-18T00:22:18;95936.79;;;-0.47;62.02
76990;BME280;65924;47.250;11.332;2022-12-18T00:22:46;95940.45;;;-0.47;62.08
76990;BME280;65924;47.250;11.332;2022-12-18T00:23:13;95936.78;;;-0.48;62.05
76990;BME280;65924;47.250;11.332;2022-12-18T00:23:43;95938.46;;;-0.48;62.21
76990;BME280;65924;47.250;11.332;2022-12-18T00:24:11;95941.30;;;-0.48;62.16
76990;BME280;65924;47.250;11.332;2022-12-18T00:24:38;95938.13;;;-0.49;61.97
76990;BME280;65924;47.250;11.332;2022-12-18T00:25:06;95941.13;;;-0.49;62.01
76990;BME280;65924;47.250;11.332;2022-12-18T00:25:35;95940.46;;;-0.50;62.22
76990;BME280;65924;47.250;11.332;2022-12-18T00:26:07;95937.45;;;-0.50;62.19
76990;BME280;65924;47.250;11.332;2022-12-18T00:26:38;95942.95;;;-0.50;62.10
76990;BME280;65924;47.250;11.332;2022-12-18T00:27:05;95940.46;;;-0.50;62.31
76990;BME280;65924;47.250;11.332;2022-12-18T00:27:33;95939.30;;;-0.51;62.25
76990;BME280;65924;47.250;11.332;2022-12-18T00:28:02;95937.79;;;-0.52;62.24
76990;BME280;65924;47.250;11.332;2022-12-18T00:28:30;95939.79;;;-0.52;62.21
76990;BME280;65924;47.250;11.332;2022-12-18T00:29:12;95939.80;;;-0.51;62.32
76990;BME280;65924;47.250;11.332;2022-12-18T00:29:41;95939.96;;;-0.52;62.27
76990;BME280;65924;47.250;11.332;2022-12-18T00:30:09;95940.96;;;-0.54;62.03
76990;BME280;65924;47.250;11.332;2022-12-18T00:30:37;95946.64;;;-0.55;62.14
76990;BME280;65924;47.250;11.332;2022-12-18T00:31:16;95942.80;;;-0.56;62.11
76990;BME280;65924;47.250;11.332;2022-12-18T00:31:45;95942.31;;;-0.58;62.14
76990;BME280;65924;47.250;11.332;2022-12-18T00:32:13;95945.15;;;-0.61;62.24
76990;BME280;65924;47.250;11.332;2022-12-18T00:32:40;95940.48;;;-0.61;62.11
76990;BME280;65924;47.250;11.332;2022-12-18T00:33:08;95940.32;;;-0.63;62.13
76990;BME280;65924;47.250;11.332;2022-12-18T00:33:36;95940.81;;;-0.64;62.26
76990;BME280;65924;47.250;11.332;2022-12-18T00:34:04;95936.32;;;-0.66;62.03
76990;BME280;65924;47.250;11.332;2022-12-18T00:34:32;95943.48;;;-0.67;62.06
76990;BME280;65924;47.250;11.332;2022-12-18T00:34:59;95940.65;;;-0.68;62.03
76990;BME280;65924;47.250;11.332;2022-12-18T00:35:27;95940.82;;;-0.68;62.06
76990;BME280;65924;47.250;11.332;2022-12-18T00:35:54;95943.52;;;-0.69;62.13
76990;BME280;65924;47.250;11.332;2022-12-18T00:36:25;95945.02;;;-0.69;62.04
76990;BME280;65924;47.250;11.332;2022-12-18T00:36:53;95946.17;;;-0.70;62.19
76990;BME280;65924;47.250;11.332;2022-12-18T00:37:20;95944.00;;;-0.70;62.20
76990;BME280;65924;47.250;11.332;2022-12-18T00:37:52;95941.67;;;-0.71;62.01
76990;BME280;65924;47.250;11.332;2022-12-18T00:38:19;95946.67;;;-0.71;62.12
76990;BME280;65924;47.250;11.332;2022-12-18T00:38:47;95942.84;;;-0.73;62.13
76990;BME280;65924;47.250;11.332;2022-12-18T00:39:18;95943.52;;;-0.74;62.26
76990;BME280;65924;47.250;11.332;2022-12-18T00:39:47;95942.00;;;-0.74;62.20
76990;BME280;65924;47.250;11.332;2022-12-18T00:40:15;95940.00;;;-0.74;62.04
76990;BME280;65924;47.250;11.332;2022-12-18T00:40:43;95940.16;;;-0.73;62.04
76990;BME280;65924;47.250;11.332;2022-12-18T00:41:15;95939.66;;;-0.73;62.03
76990;BME280;65924;47.250;11.332;2022-12-18T00:42:06;95941.84;;;-0.73;61.83
76990;BME280;65924;47.250;11.332;2022-12-18T00:42:52;95940.66;;;-0.75;61.84
76990;BME280;65924;47.250;11.332;2022-12-18T00:43:22;95941.17;;;-0.76;62.03
76990;BME280;65924;47.250;11.332;2022-12-18T00:43:50;95942.84;;;-0.75;61.90
76990;BME280;65924;47.250;11.332;2022-12-18T00:44:18;95943.34;;;-0.75;61.99
76990;BME280;65924;47.250;11.332;2022-12-18T00:44:46;95945.02;;;-0.75;61.93
76990;BME280;65924;47.250;11.332;2022-12-18T00:45:14;95945.52;;;-0.75;61.77
76990;BME280;65924;47.250;11.332;2022-12-18T00:45:41;95945.17;;;-0.76;61.68
76990;BME280;65924;47.250;11.332;2022-12-18T00:46:09;95946.68;;;-0.74;61.81
76990;BME280;65924;47.250;11.332;2022-12-18T00:46:36;95947.52;;;-0.74;61.99
76990;BME280;65924;47.250;11.332;2022-12-18T00:47:04;95951.69;;;-0.72;62.04
76990;BME280;65924;47.250;11.332;2022-12-18T00:47:31;95950.36;;;-0.72;61.96
76990;BME280;65924;47.250;11.332;2022-12-18T00:47:59;95952.17;;;-0.72;61.90
76990;BME280;65924;47.250;11.332;2022-12-18T00:48:26;95955.37;;;-0.72;62.00
76990;BME280;65924;47.250;11.332;2022-12-18T00:48:54;95954.69;;;-0.72;62.06
76990;BME280;65924;47.250;11.332;2022-12-18T00:49:22;95952.02;;;-0.72;62.08
76990;BME280;65924;47.250;11.332;2022-12-18T00:49:50;95951.02;;;-0.72;61.98
76990;BME280;65924;47.250;11.332;2022-12-18T00:50:18;95953.86;;;-0.71;61.88
76990;BME280;65924;47.250;11.332;2022-12-18T00:50:48;95955.03;;;-0.71;61.88
76990;BME280;65924;47.250;11.332;2022-12-18T00:51:16;95957.19;;;-0.72;61.85
76990;BME280;65924;47.250;11.332;2022-12-18T00:51:43;95955.36;;;-0.75;61.79
76990;BME280;65924;47.250;11.332;2022-12-18T00:52:11;95957.54;;;-0.76;61.83
76990;BME280;65924;47.250;11.332;2022-12-18T00:52:38;95956.86;;;-0.77;61.96
76990;BME280;65924;47.250;11.332;2022-12-18T00:53:06;95960.38;;;-0.77;61.83
76990;BME280;65924;47.250;11.332;2022-12-18T00:53:37;95959.03;;;-0.78;62.10
76990;BME280;65924;47.250;11.332;2022-12-18T00:54:06;95960.70;;;-0.79;62.10
76990;BME280;65924;47.250;11.332;2022-12-18T00:54:34;95959.88;;;-0.79;62.09
76990;BME280;65924;47.250;11.332;2022-12-18T00:55:01;95959.54;;;-0.79;62.25
76990;BME280;65924;47.250;11.332;2022-12-18T00:55:29;95957.36;;;-0.79;62.13
76990;BME280;65924;47.250;11.332;2022-12-18T00:55:57;95958.88;;;-0.79;62.11
76990;BME280;65924;47.250;11.332;2022-12-18T00:56:25;95956.86;;;-0.79;62.23
76990;BME280;65924;47.250;11.332;2022-12-18T00:56:53;95957.38;;;-0.78;62.21
76990;BME280;65924;47.250;11.332;2022-12-18T00:57:22;95961.70;;;-0.77;62.29
76990;BME280;65924;47.250;11.332;2022-12-18T00:57:51;95963.55;;;-0.77;62.12
76990;BME280;65924;47.250;11.332;2022-12-18T00:58:19;95963.37;;;-0.77;62.10
76990;BME280;65924;47.250;11.332;2022-12-18T00:58:47;95963.88;;;-0.77;62.16
76990;BME280;65924;47.250;11.332;2022-12-18T00:59:17;95964.55;;;-0.77;62.31
76990;BME280;65924;47.250;11.332;2022-12-18T00:59:45;95966.72;;;-0.77;62.08
76990;BME280;65924;47.250;11.332;2022-12-18T01:00:14;95969.21;;;-0.77;62.09
76990;BME280;65924;47.250;11.332;2022-12-18T01:00:43;95973.73;;;-0.77;62.15
76990;BME280;65924;47.250;11.332;2022-12-18T01:01:12;95967.89;;;-0.78;62.09
76990;BME280;65924;47.250;11.332;2022-12-18T01:01:39;95970.55;;;-0.78;62.23
76990;BME280;65924;47.250;11.332;2022-12-18T01:02:07;95968.70;;;-0.79;62.18
76990;BME280;65924;47.250;11.332;2022-12-18T01:02:35;95968.05;;;-0.80;62.08
76990;BME280;65924;47.250;11.332;2022-12-18T01:03:03;95969.71;;;-0.79;62.21
76990;BME280;65924;47.250;11.332;2022-12-18T01:03:32;95971.21;;;-0.79;62.36
76990;BME280;65924;47.250;11.332;2022-12-18T01:04:01;95969.55;;;-0.79;62.30
76990;BME280;65924;47.250;11.332;2022-12-18T01:04:31;95970.56;;;-0.80;62.28
76990;BME280;65924;47.250;11.332;2022-12-18T01:05:03;95967.73;;;-0.80;62.21
76990;BME280;65924;47.250;11.332;2022-12-18T01:05:31;95968.90;;;-0.81;62.28
76990;BME280;65924;47.250;11.332;2022-12-18T01:05:59;95967.73;;;-0.81;62.04
76990;BME280;65924;47.250;11.332;2022-12-18T01:06:27;95969.06;;;-0.81;62.12
76990;BME280;65924;47.250;11.332;2022-12-18T01:06:54;95971.05;;;-0.80;62.16
76990;BME280;65924;47.250;11.332;2022-12-18T01:07:22;95967.55;;;-0.81;62.09
76990;BME280;65924;47.250;11.332;2022-12-18T01:07:50;95969.23;;;-0.81;62.16
76990;BME280;65924;47.250;11.332;2022-12-18T01:08:18;95971.39;;;-0.80;61.91
76990;BME280;65924;47.250;11.332;2022-12-18T01:08:49;95969.39;;;-0.80;62.28
76990;BME280;65924;47.250;11.332;2022-12-18T01:09:16;95971.23;;;-0.80;61.96
76990;BME280;65924;47.250;11.332;2022-12-18T01:09:44;95974.06;;;-0.80;62.17
76990;BME280;65924;47.250;11.332;2022-12-18T01:10:12;95974.39;;;-0.80;62.02
76990;BME280;65924;47.250;11.332;2022-12-18T01:10:40;95977.58;;;-0.81;62.05
76990;BME280;65924;47.250;11.332;2022-12-18T01:11:15;95977.05;;;-0.79;62.29
76990;BME280;65924;47.250;11.332;2022-12-18T01:11:42;95977.08;;;-0.80;62.22
76990;BME280;65924;47.250;11.332;2022-12-18T01:12:12;95978.40;;;-0.80;62.23
76990;BME280;65924;47.250;11.332;2022-12-18T01:12:39;95981.73;;;-0.80;62.17
76990;BME280;65924;47.250;11.332;2022-12-18T01:13:07;95978.73;;;-0.79;61.99
76990;BME280;65924;47.250;11.332;2022-12-18T01:13:35;95977.73;;;-0.79;62.07
76990;BME280;65924;47.250;11.332;2022-12-18T01:14:02;95978.73;;;-0.78;62.21
76990;BME280;65924;47.250;11.332;2022-12-18T01:14:30;95978.90;;;-0.77;62.03
76990;BME280;65924;47.250;11.332;2022-12-18T01:14:57;95975.89;;;-0.77;62.02
76990;BME280;65924;47.250;11.332;2022-12-18T01:15:25;95979.56;;;-0.76;62.15
76990;BME280;65924;47.250;11.332;2022-12-18T01:15:53;95980.90;;;-0.75;62.18
76990;BME280;65924;47.250;11.332;2022-12-18T01:16:21;95979.57;;;-0.75;61.94
76990;BME280;65924;47.250;11.332;2022-12-18T01:16:49;95982.58;;;-0.74;61.88
76990;BME280;65924;47.250;11.332;2022-12-18T01:17:16;95984.91;;;-0.74;62.05
76990;BME280;65924;47.250;11.332;2022-12-18T01:17:44;95982.58;;;-0.74;62.01
76990;BME280;65924;47.250;11.332;2022-12-18T01:18:12;95987.91;;;-0.73;62.04
76990;BME280;65924;47.250;11.332;2022-12-18T01:18:39;95987.58;;;-0.73;62.04
76990;BME280;65924;47.250;11.332;2022-12-18T01:19:07;95986.91;;;-0.73;62.20
76990;BME280;65924;47.250;11.332;2022-12-18T01:19:34;95991.26;;;-0.72;62.25
76990;BME280;65924;47.250;11.332;2022-12-18T01:20:02;95989.75;;;-0.71;62.13
76990;BME280;65924;47.250;11.332;2022-12-18T01:20:30;95991.09;;;-0.71;61.85
76990;BME280;65924;47.250;11.332;2022-12-18T01:20:58;95989.09;;;-0.71;61.68
76990;BME280;65924;47.250;11.332;2022-12-18T01:21:26;95992.42;;;-0.72;61.49
76990;BME280;65924;47.250;11.332;2022-12-18T01:21:54;95993.08;;;-0.72;61.46
76990;BME280;65924;47.250;11.332;2022-12-18T01:22:22;95994.26;;;-0.72;61.61
76990;BME280;65924;47.250;11.332;2022-12-18T01:22:50;95992.59;;;-0.73;61.51
76990;BME280;65924;47.250;11.332;2022-12-18T01:23:17;95992.58;;;-0.73;61.73
76990;BME280;65924;47.250;11.332;2022-12-18T01:23:46;95995.42;;;-0.74;61.46
76990;BME280;65924;47.250;11.332;2022-12-18T01:24:13;95994.42;;;-0.75;61.70
76990;BME280;65924;47.250;11.332;2022-12-18T01:24:41;95995.43;;;-0.75;61.82
76990;BME280;65924;47.250;11.332;2022-12-18T01:25:09;95998.59;;;-0.75;61.68
76990;BME280;65924;47.250;11.332;2022-12-18T01:25:38;96000.77;;;-0.76;61.82
76990;BME280;65924;47.250;11.332;2022-12-18T01:26:11;95999.44;;;-0.76;61.90
76990;BME280;65924;47.250;11.332;2022-12-18T01:26:39;96004.60;;;-0.76;61.85
76990;BME280;65924;47.250;11.332;2022-12-18T01:27:06;96006.28;;;-0.77;61.68
76990;BME280;65924;47.250;11.332;2022-12-18T01:27:34;96004.94;;;-0.78;61.64
76990;BME280;65924;47.250;11.332;2022-12-18T01:28:04;96006.95;;;-0.79;61.87
76990;BME280;65924;47.250;11.332;2022-12-18T01:28:33;96007.11;;;-0.80;62.12
76990;BME280;65924;47.250;11.332;2022-12-18T01:29:00;96009.61;;;-0.79;61.90
76990;BME280;65924;47.250;11.332;2022-12-18T01:29:28;96008.45;;;-0.80;61.75
76990;BME280;65924;47.250;11.332;2022-12-18T01:29:56;96010.61;;;-0.80;61.85
76990;BME280;65924;47.250;11.332;2022-12-18T01:30:23;96011.96;;;-0.81;61.80
76990;BME280;65924;47.250;11.332;2022-12-18T01:30:54;96010.96;;;-0.82;61.74
76990;BME280;65924;47.250;11.332;2022-12-18T01:31:28;96013.46;;;-0.83;61.36
76990;BME280;65924;47.250;11.332;2022-12-18T01:31:56;96015.63;;;-0.83;61.33
76990;BME280;65924;47.250;11.332;2022-12-18T01:32:23;96015.63;;;-0.85;61.45
76990;BME280;65924;47.250;11.332;2022-12-18T01:32:51;96016.14;;;-0.85;61.48
76990;BME280;65924;47.250;11.332;2022-12-18T01:33:19;96016.64;;;-0.86;61.61
76990;BME280;65924;47.250;11.332;2022-12-18T01:33:46;96013.80;;;-0.87;61.50
76990;BME280;65924;47.250;11.332;2022-12-18T01:34:14;96013.29;;;-0.86;61.60
76990;BME280;65924;47.250;11.332;2022-12-18T01:34:42;96015.45;;;-0.87;61.39
76990;BME280;65924;47.250;11.332;2022-12-18T01:35:10;96017.13;;;-0.88;61.41
76990;BME280;65924;47.250;11.332;2022-12-18T01:35:41;96015.47;;;-0.88;61.48
76990;BME280;65924;47.250;11.332;2022-12-18T01:36:19;96016.95;;;-0.89;61.32
76990;BME280;65924;47.250;11.332;2022-12-18T01:36:47;96018.45;;;-0.91;61.32
76990;BME280;65924;47.250;11.332;2022-12-18T01:37:14;96020.30;;;-0.93;61.42
76990;BME280;65924;47.250;11.332;2022-12-18T01:37:42;96022.14;;;-0.94;61.75
76990;BME280;65924;47.250;11.332;2022-12-18T01:38:10;96021.64;;;-0.94;61.35
76990;BME280;65924;47.250;11.332;2022-12-18T01:38:37;96021.98;;;-0.95;61.32
76990;BME280;65924;47.250;11.332;2022-12-18T01:39:11;96025.63;;;-0.96;61.16
76990;BME280;65924;47.250;11.332;2022-12-18T01:39:39;96026.30;;;-0.97;61.41
76990;BME280;65924;47.250;11.332;2022-12-18T01:40:07;96025.97;;;-0.98;61.45
76990;BME280;65924;47.250;11.332;2022-12-18T01:40:35;96029.14;;;-0.99;61.60
76990;BME280;65924;47.250;11.332;2022-12-18T01:41:04;96028.30;;;-1.00;61.53
76990;BME280;65924;47.250;11.332;2022-12-18T01:41:33;96025.79;;;-1.01;61.49
76990;BME280;65924;47.250;11.332;2022-12-18T01:42:20;96027.64;;;-1.04;61.54
76990;BME280;65924;47.250;11.332;2022-12-18T01:42:51;96029.98;;;-1.06;61.48
76990;BME280;65924;47.250;11.332;2022-12-18T01:43:19;96030.13;;;-1.08;61.30
76990;BME280;65924;47.250;11.332;2022-12-18T01:43:55;96030.13;;;-1.10;61.42
76990;BME280;65924;47.250;11.332;2022-12-18T01:44:54;96027.79;;;-1.12;61.40
76990;BME280;65924;47.250;11.332;2022-12-18T01:45:27;96031.45;;;-1.15;61.74
76990;BME280;65924;47.250;11.332;2022-12-18T01:45:54;96028.61;;;-1.17;61.57
76990;BME280;65924;47.250;11.332;2022-12-18T01:46:23;96033.63;;;-1.19;61.98
76990;BME280;65924;47.250;11.332;2022-12-18T01:46:51;96035.61;;;-1.21;61.97
76990;BME280;65924;47.250;11.332;2022-12-18T01:48:07;96035.79;;;-1.23;62.06
76990;BME280;65924;47.250;11.332;2022-12-18T01:48:36;96036.60;;;-1.25;62.13
76990;BME280;65924;47.250;11.332;2022-12-18T01:49:05;96035.29;;;-1.26;62.08
76990;BME280;65924;47.250;11.332;2022-12-18T01:49:32;96036.44;;;-1.26;62.04
76990;BME280;65924;47.250;11.332;2022-12-18T01:50:18;96034.44;;;-1.25;62.09
76990;BME280;65924;47.250;11.332;2022-12-18T01:50:46;96036.77;;;-1.26;61.97
76990;BME280;65924;47.250;11.332;2022-12-18T01:51:17;96039.44;;;-1.26;61.97
76990;BME280;65924;47.250;11.332;2022-12-18T01:51:45;96038.61;;;-1.27;62.04
76990;BME280;65924;47.250;11.332;2022-12-18T01:52:15;96044.77;;;-1.27;61.81
76990;BME280;65924;47.250;11.332;2022-12-18T01:52:51;96041.60;;;-1.26;61.95
76990;BME280;65924;47.250;11.332;2022-12-18T01:53:22;96044.11;;;-1.27;61.99
76990;BME280;65924;47.250;11.332;2022-12-18T01:53:50;96040.77;;;-1.27;62.12
76990;BME280;65924;47.250;11.332;2022-12-18T01:54:18;96040.77;;;-1.27;61.90
76990;BME280;65924;47.250;11.332;2022-12-18T01:54:46;96041.94;;;-1.26;62.06
76990;BME280;65924;47.250;11.332;2022-12-18T01:55:17;96041.45;;;-1.25;62.14
76990;BME280;65924;47.250;11.332;2022-12-18T01:55:54;96039.27;;;-1.24;61.96
76990;BME280;65924;47.250;11.332;2022-12-18T01:56:22;96039.42;;;-1.24;61.96
76990;BME280;65924;47.250;11.332;2022-12-18T01:56:50;96040.77;;;-1.24;61.76
76990;BME280;65924;47.250;11.332;2022-12-18T01:57:18;96038.42;;;-1.24;61.67
76990;BME280;65924;47.250;11.332;2022-12-18T01:57:47;96037.77;;;-1.24;61.70
76990;BME280;65924;47.250;11.332;2022-12-18T01:58:16;96039.61;;;-1.23;61.88
76990;BME280;65924;47.250;11.332;2022-12-18T01:58:56;96036.60;;;-1.24;61.85
76990;BME280;65924;47.250;11.332;2022-12-18T01:59:25;96040.94;;;-1.23;61.87
76990;BME280;65924;47.250;11.332;2022-12-18T01:59:58;96039.94;;;-1.24;61.61
76990;BME280;65924;47.250;11.332;2022-12-18T02:00:28;96038.77;;;-1.25;61.52
76990;BME280;65924;47.250;11.332;2022-12-18T02:00:55;96037.92;;;-1.25;61.24
76990;BME280;65924;47.250;11.332;2022-12-18T02:01:24;96038.44;;;-1.25;61.40
76990;BME280;65924;47.250;11.332;2022-12-18T02:01:52;96042.77;;;-1.25;61.43
76990;BME280;65924;47.250;11.332;2022-12-18T02:02:20;96041.45;;;-1.26;61.41
76990;BME280;65924;47.250;11.332;2022-12-18T02:02:48;96041.61;;;-1.26;61.64
76990;BME280;65924;47.250;11.332;2022-12-18T02:03:15;96039.95;;;-1.25;61.64
76990;BME280;65924;47.250;11.332;2022-12-18T02:03:44;96043.11;;;-1.25;61.64
76990;BME280;65924;47.250;11.332;2022-12-18T02:04:29;96042.95;;;-1.25;61.77
76990;BME280;65924;47.250;11.332;2022-12-18T02:04:57;96043.45;;;-1.26;61.74
76990;BME280;65924;47.250;11.332;2022-12-18T02:05:47;96043.27;;;-1.28;61.75
76990;BME280;65924;47.250;11.332;2022-12-18T02:07:08;96040.76;;;-1.32;61.95
76990;BME280;65924;47.250;11.332;2022-12-18T02:09:16;96043.06;;;-1.41;61.90
76990;BME280;65924;47.250;11.332;2022-12-18T02:10:52;96043.90;;;-1.44;61.92
76990;BME280;65924;47.250;11.332;2022-12-18T02:12:21;96047.54;;;-1.51;61.81
76990;BME280;65924;47.250;11.332;2022-12-18T02:13:19;96050.37;;;-1.54;61.87
76990;BME280;65924;47.250;11.332;2022-12-18T02:15:07;96052.02;;;-1.60;61.90
76990;BME280;65924;47.250;11.332;2022-12-18T02:15:44;96056.84;;;-1.63;61.99
76990;BME280;65924;47.250;11.332;2022-12-18T02:16:24;96054.48;;;-1.67;62.12
76990;BME280;65924;47.250;11.332;2022-12-18T02:16:59;96053.31;;;-1.69;62.18
76990;BME280;65924;47.250;11.332;2022-12-18T02:17:40;96053.63;;;-1.70;62.40
76990;BME280;65924;47.250;11.332;2022-12-18T02:18:15;96052.98;;;-1.70;62.31
76990;BME280;65924;47.250;11.332;2022-12-18T02:18:49;96050.48;;;-1.71;62.45
76990;BME280;65924;47.250;11.332;2022-12-18T02:19:43;96050.47;;;-1.71;62.48
76990;BME280;65924;47.250;11.332;2022-12-18T02:20:54;96046.47;;;-1.70;62.64
76990;BME280;65924;47.250;11.332;2022-12-18T02:22:59;96044.96;;;-1.72;62.91
76990;BME280;65924;47.250;11.332;2022-12-18T02:23:40;96046.97;;;-1.73;62.57
76990;BME280;65924;47.250;11.332;2022-12-18T02:25:12;96042.96;;;-1.74;62.72
76990;BME280;65924;47.250;11.332;2022-12-18T02:26:49;96045.45;;;-1.75;62.83
76990;BME280;65924;47.250;11.332;2022-12-18T02:27:18;96040.79;;;-1.76;62.36
76990;BME280;65924;47.250;11.332;2022-12-18T02:27:47;96041.45;;;-1.76;62.37
76990;BME280;65924;47.250;11.332;2022-12-18T02:28:20;96038.79;;;-1.76;62.08
76990;BME280;65924;47.250;11.332;2022-12-18T02:30:04;96037.27;;;-1.78;62.10
76990;BME280;65924;47.250;11.332;2022-12-18T02:30:33;96037.94;;;-1.80;62.30
76990;BME280;65924;47.250;11.332;2022-12-18T02:31:05;96035.42;;;-1.80;62.30
76990;BME280;65924;47.250;11.332;2022-12-18T02:31:43;96037.42;;;-1.81;62.20
76990;BME280;65924;47.250;11.332;2022-12-18T02:32:19;96031.77;;;-1.82;62.39
76990;BME280;65924;47.250;11.332;2022-12-18T02:32:50;96035.58;;;-1.82;62.36
76990;BME280;65924;47.250;11.332;2022-12-18T02:33:20;96037.41;;;-1.82;62.60
76990;BME280;65924;47.250;11.332;2022-12-18T02:33:51;96037.42;;;-1.82;62.46
76990;BME280;65924;47.250;11.332;2022-12-18T02:34:22;96034.09;;;-1.82;62.48
76990;BME280;65924;47.250;11.332;2022-12-18T02:34:56;96033.25;;;-1.82;62.46
76990;BME280;65924;47.250;11.332;2022-12-18T02:35:27;96037.42;;;-1.82;62.60
76990;BME280;65924;47.250;11.332;2022-12-18T02:36:00;96037.60;;;-1.81;62.60
76990;BME280;65924;47.250;11.332;2022-12-18T02:36:29;96038.42;;;-1.81;62.50
76990;BME280;65924;47.250;11.332;2022-12-18T02:37:01;96041.77;;;-1.80;62.37
76990;BME280;65924;47.250;11.332;2022-12-18T02:37:32;96044.28;;;-1.77;62.73
76990;BME280;65924;47.250;11.332;2022-12-18T02:38:03;96040.45;;;-1.76;62.57
76990;BME280;65924;47.250;11.332;2022-12-18T02:38:33;96043.96;;;-1.74;62.63
76990;BME280;65924;47.250;11.332;2022-12-18T02:39:09;96042.80;;;-1.72;62.55
76990;BME280;65924;47.250;11.332;2022-12-18T02:39:42;96041.13;;;-1.72;62.54
76990;BME280;65924;47.250;11.332;2022-12-18T02:40:14;96042.96;;;-1.70;62.43
76990;BME280;65924;47.250;11.332;2022-12-18T02:40:43;96042.64;;;-1.69;62.51
76990;BME280;65924;47.250;11.332;2022-12-18T02:41:14;96038.48;;;-1.69;62.17
76990;BME280;65924;47.250;11.332;2022-12-18T02:41:44;96036.82;;;-1.67;62.50
76990;BME280;65924;47.250;11.332;2022-12-18T02:42:12;96038.33;;;-1.65;62.55
76990;BME280;65924;47.250;11.332;2022-12-18T02:42:41;96036.83;;;-1.63;62.65
76990;BME280;65924;47.250;11.332;2022-12-18T02:43:11;96034.99;;;-1.62;62.65
76990;BME280;65924;47.250;11.332;2022-12-18T02:43:45;96035.16;;;-1.60;62.42
76990;BME280;65924;47.250;11.332;2022-12-18T02:44:14;96031.84;;;-1.58;62.34
76990;BME280;65924;47.250;11.332;2022-12-18T02:44:47;96032.35;;;-1.57;62.32
76990;BME280;65924;47.250;11.332;2022-12-18T02:45:17;96034.19;;;-1.57;62.22
76990;BME280;65924;47.250;11.332;2022-12-18T02:45:57;96034.69;;;-1.56;61.89
76990;BME280;65924;47.250;11.332;2022-12-18T02:46:32;96033.35;;;-1.55;62.00
76990;BME280;65924;47.250;11.332;2022-12-18T02:47:05;96034.02;;;-1.55;61.92
76990;BME280;65924;47.250;11.332;2022-12-18T02:47:37;96034.85;;;-1.55;61.74
76990;BME280;65924;47.250;11.332;2022-12-18T02:48:07;96037.86;;;-1.54;61.98
76990;BME280;65924;47.250;11.332;2022-12-18T02:48:35;96038.86;;;-1.54;61.77
76990;BME280;65924;47.250;11.332;2022-12-18T02:51:04;96044.36;;;-1.56;61.60